createdAt,value
2023-02-28T00:03:30.827Z,8.90
2023-02-28T00:08:34.450Z,10.85
2023-02-28T00:13:39.956Z,9.93
2023-02-28T00:18:45.428Z,8.07
2023-02-28T00:23:49.477Z,10.87
2023-02-28T00:28:54.311Z,8.25
2023-02-28T00:33:59.577Z,11.55
2023-02-28T00:39:03.180Z,9.48
2023-02-28T00:44:07.005Z,13.35
2023-02-28T00:49:12.282Z,13.48
2023-02-28T00:54:15.907Z,14.43
2023-02-28T00:59:19.988Z,9.45
2023-02-28T01:04:25.314Z,10.38
2023-02-28T01:09:28.948Z,15.02
2023-02-28T01:14:32.620Z,8.55
2023-02-28T01:19:37.999Z,13.60
2023-02-28T01:24:41.654Z,10.80
2023-02-28T01:29:45.305Z,12.45
2023-02-28T01:34:50.564Z,13.57
2023-02-28T01:39:54.181Z,13.38
2023-02-28T01:45:04.342Z,14.45
2023-02-28T01:50:14.497Z,10.65
2023-02-28T01:55:20.459Z,9.95
2023-02-28T02:00:26.880Z,13.05
2023-02-28T02:10:38.117Z,11.15
2023-02-28T02:15:50.480Z,11.63
2023-02-28T02:21:24.281Z,9.10
2023-02-28T02:26:51.094Z,11.75
2023-02-28T02:37:29.330Z,14.23
2023-02-28T02:42:41.604Z,13.00
2023-02-28T02:47:47.050Z,10.05
2023-02-28T02:52:57.408Z,13.27
2023-02-28T02:58:03.689Z,10.88
2023-02-28T03:08:12.940Z,12.35
2023-02-28T03:13:39.026Z,10.77
2023-02-28T03:18:52.256Z,11.57
2023-02-28T03:24:05.483Z,13.88
2023-02-28T03:29:21.930Z,10.70
2023-02-28T03:34:31.309Z,8.07
2023-02-28T03:39:41.603Z,10.18
2023-02-28T03:44:49.556Z,5.85
2023-02-28T03:49:59.477Z,8.57
2023-02-28T03:55:08.880Z,7.28
2023-02-28T04:00:18.374Z,11.13
2023-02-28T04:05:22.714Z,8.35
2023-02-28T04:10:28.466Z,11.38
2023-02-28T04:15:32.214Z,7.87
2023-02-28T04:20:35.877Z,9.43
2023-02-28T04:25:41.160Z,8.95
2023-02-28T04:30:44.856Z,9.57
2023-02-28T04:35:48.554Z,11.13
2023-02-28T04:40:53.897Z,9.70
2023-02-28T04:45:58.057Z,10.70
2023-02-28T04:51:03.516Z,11.98
2023-02-28T04:56:11.079Z,9.35
2023-02-28T05:01:24.909Z,11.50
2023-02-28T05:06:30.239Z,9.02
2023-02-28T05:11:36.296Z,9.25
2023-02-28T05:16:40.150Z,12.73
2023-02-28T05:21:51.328Z,14.95
2023-02-28T05:26:56.886Z,9.75
2023-02-28T05:32:00.586Z,7.63
2023-02-28T05:37:04.279Z,10.38
2023-02-28T05:42:10.639Z,8.13
2023-02-28T05:47:14.254Z,7.35
2023-02-28T05:52:17.934Z,8.35
2023-02-28T05:57:24.836Z,9.02
2023-02-28T06:02:28.581Z,12.20
2023-02-28T06:07:32.224Z,12.60
2023-02-28T06:12:38.122Z,7.13
2023-02-28T06:17:42.426Z,7.13
2023-02-28T06:22:46.056Z,6.93
2023-02-28T06:27:51.343Z,7.93
2023-02-28T06:32:55.307Z,6.90
2023-02-28T06:37:59.960Z,6.93
2023-02-28T06:43:05.410Z,7.22
2023-02-28T06:48:09.039Z,9.68
2023-02-28T06:53:12.696Z,6.45
2023-02-28T06:58:18.930Z,6.22
2023-02-28T07:03:22.590Z,6.50
2023-02-28T07:08:26.706Z,7.55
2023-02-28T07:13:33.178Z,5.55
2023-02-28T07:23:40.647Z,9.20
2023-02-28T07:28:47.045Z,9.15
2023-02-28T07:33:50.719Z,4.57
2023-02-28T07:38:54.472Z,5.80
2023-02-28T07:43:59.776Z,7.28
2023-02-28T07:49:03.819Z,6.35
2023-02-28T07:54:07.674Z,9.20
2023-02-28T07:59:13.562Z,5.55
2023-02-28T08:04:17.225Z,7.07
2023-02-28T08:09:21.122Z,4.85
2023-02-28T08:14:26.434Z,6.22
2023-02-28T08:19:30.107Z,4.30
2023-02-28T08:24:33.739Z,5.28
2023-02-28T08:29:39.711Z,4.85
2023-02-28T08:34:43.313Z,8.77
2023-02-28T08:39:46.971Z,4.93
2023-02-28T08:44:53.231Z,4.90
2023-02-28T08:49:56.828Z,6.38
2023-02-28T08:55:00.757Z,6.90
2023-02-28T09:00:07.007Z,8.20
2023-02-28T09:05:11.161Z,4.15
2023-02-28T09:10:14.806Z,6.22
2023-02-28T09:15:21.047Z,5.28
2023-02-28T09:20:24.729Z,5.05
2023-02-28T09:25:28.445Z,4.85
2023-02-28T09:30:33.847Z,10.75
2023-02-28T09:35:37.505Z,4.55
2023-02-28T09:40:52.584Z,7.28
2023-02-28T09:46:04.478Z,6.53
2023-02-28T09:51:17.466Z,6.25
2023-02-28T09:56:26.089Z,9.85
2023-02-28T10:01:40.933Z,7.78
2023-02-28T10:06:48.726Z,6.00
2023-02-28T10:11:56.107Z,8.80
2023-02-28T10:17:06.253Z,8.27
2023-02-28T10:22:15.600Z,4.03
2023-02-28T10:27:21.139Z,10.00
2023-02-28T10:32:28.699Z,9.98
2023-02-28T10:37:32.302Z,6.57
2023-02-28T10:42:35.991Z,7.15
2023-02-28T10:47:51.520Z,6.60
2023-02-28T10:52:56.093Z,13.60
2023-02-28T10:57:59.774Z,8.55
2023-02-28T11:03:31.334Z,7.65
2023-02-28T11:08:35.584Z,5.70
2023-02-28T11:13:39.347Z,5.90
2023-02-28T11:18:49.820Z,9.38
2023-02-28T11:23:58.184Z,8.80
2023-02-28T11:29:12.054Z,7.65
2023-02-28T11:34:29.972Z,10.23
2023-02-28T11:39:34.855Z,7.30
2023-02-28T11:44:50.612Z,11.80
2023-02-28T11:50:13.301Z,11.38
2023-02-28T11:55:21.481Z,5.78
2023-02-28T12:00:40.760Z,7.65
2023-02-28T12:05:48.582Z,12.43
2023-02-28T12:11:06.712Z,8.20
2023-02-28T12:16:39.486Z,4.22
2023-02-28T12:22:13.884Z,9.18
2023-02-28T12:27:23.435Z,12.93
2023-02-28T12:32:34.650Z,7.80
2023-02-28T12:37:43.190Z,12.55
2023-02-28T12:42:51.122Z,12.95
2023-02-28T12:47:59.168Z,14.32
2023-02-28T12:53:08.773Z,9.38
2023-02-28T12:58:20.267Z,14.55
2023-02-28T13:03:46.805Z,8.25
2023-02-28T13:09:06.824Z,9.43
2023-02-28T13:14:23.904Z,8.80
2023-02-28T13:19:30.719Z,14.25
2023-02-28T13:24:52.007Z,17.35
2023-02-28T13:29:55.892Z,12.88
2023-02-28T13:35:44.591Z,13.20
2023-02-28T13:40:49.959Z,14.63
2023-02-28T13:46:12.201Z,11.05
2023-02-28T13:51:41.715Z,13.35
2023-02-28T13:56:53.501Z,19.33
2023-02-28T14:02:19.113Z,26.23
2023-02-28T14:07:25.697Z,19.92
2023-02-28T14:13:02.486Z,17.83
2023-02-28T14:18:15.209Z,16.65
2023-02-28T14:23:33.121Z,11.70
2023-02-28T14:28:51.765Z,10.05
2023-02-28T14:34:15.719Z,12.38
2023-02-28T14:39:23.872Z,18.55
2023-02-28T14:44:29.869Z,16.27
2023-02-28T14:49:36.816Z,18.52
2023-02-28T14:54:41.198Z,11.80
2023-02-28T14:59:46.519Z,10.27
2023-02-28T15:04:58.422Z,7.03
2023-02-28T15:10:16.089Z,11.25
2023-02-28T15:15:31.702Z,16.02
2023-02-28T15:20:45.960Z,5.47
2023-02-28T15:25:50.160Z,4.13
2023-02-28T15:30:58.862Z,7.82
2023-02-28T15:36:15.171Z,6.90
2023-02-28T15:41:27.967Z,8.48
2023-02-28T15:46:33.535Z,8.65
2023-02-28T15:51:39.670Z,10.25
2023-02-28T15:56:47.143Z,10.40
2023-02-28T16:02:13.703Z,16.38
2023-02-28T16:07:17.468Z,9.50
2023-02-28T16:12:22.610Z,8.55
2023-02-28T16:17:29.671Z,10.05
2023-02-28T16:22:33.283Z,2.00
2023-02-28T16:27:39.326Z,6.03
2023-02-28T16:32:44.664Z,6.38
2023-02-28T16:37:48.313Z,8.20
2023-02-28T16:42:54.754Z,8.75
2023-02-28T16:53:02.956Z,7.70
2023-02-28T16:58:06.840Z,11.45
2023-02-28T17:03:32.008Z,1.30
2023-02-28T17:08:36.596Z,6.20
2023-02-28T17:13:40.245Z,0.98
2023-02-28T17:18:45.549Z,2.72
2023-02-28T17:23:49.179Z,3.67
2023-02-28T17:28:55.509Z,3.93
2023-02-28T17:34:00.869Z,1.83
2023-02-28T17:39:05.416Z,3.25
2023-02-28T17:44:09.110Z,5.30
2023-02-28T17:49:14.867Z,8.13
2023-02-28T17:54:19.316Z,6.77
2023-02-28T17:59:22.995Z,9.63
2023-02-28T18:04:28.422Z,5.40
2023-02-28T18:09:32.047Z,9.60
2023-02-28T18:14:35.692Z,6.20
2023-02-28T18:19:41.152Z,7.75
2023-02-28T18:24:44.985Z,5.87
2023-02-28T18:29:48.646Z,11.20
2023-02-28T18:34:54.082Z,9.93
2023-02-28T18:39:58.146Z,6.07
2023-02-28T18:45:01.824Z,5.32
2023-02-28T18:50:07.621Z,6.22
2023-02-28T18:55:11.677Z,8.95
2023-02-28T19:00:17.640Z,8.35
2023-02-28T19:05:23.120Z,6.82
2023-02-28T19:10:26.778Z,4.83
2023-02-28T19:15:30.467Z,9.60
2023-02-28T19:20:35.806Z,8.13
2023-02-28T19:25:42.481Z,9.10
2023-02-28T19:30:48.433Z,5.78
2023-02-28T19:35:53.975Z,6.97
2023-02-28T19:41:04.556Z,8.23
2023-02-28T19:46:08.852Z,9.07
2023-02-28T19:51:15.534Z,8.45
2023-02-28T19:56:19.252Z,7.75
2023-02-28T20:01:23.001Z,8.25
2023-02-28T20:06:29.358Z,9.73
2023-02-28T20:11:33.179Z,7.15
2023-02-28T20:16:36.874Z,12.05
2023-02-28T20:21:42.156Z,9.75
2023-02-28T20:26:45.888Z,7.97
2023-02-28T20:31:49.674Z,8.95
2023-02-28T20:36:55.031Z,5.22
2023-02-28T20:41:58.651Z,9.80
2023-02-28T20:47:02.270Z,11.15
2023-02-28T20:52:07.633Z,10.85
2023-02-28T20:57:11.272Z,12.27
2023-02-28T21:02:17.610Z,8.35
2023-02-28T21:07:22.920Z,6.53
2023-02-28T21:12:26.640Z,10.80
2023-02-28T21:17:30.483Z,9.07
2023-02-28T21:22:36.733Z,9.13
2023-02-28T21:27:40.337Z,12.60
2023-02-28T21:32:43.947Z,10.70
2023-02-28T21:37:49.243Z,8.07
2023-02-28T21:42:53.041Z,7.07
2023-02-28T21:47:56.687Z,9.48
2023-02-28T21:53:02.229Z,10.43
2023-02-28T21:58:05.890Z,7.47
2023-02-28T22:03:09.816Z,9.65
2023-02-28T22:08:15.139Z,8.88
2023-02-28T22:13:18.805Z,10.47
2023-02-28T22:18:22.477Z,9.95
2023-02-28T22:23:27.952Z,8.68
2023-02-28T22:28:31.928Z,11.57
2023-02-28T22:33:35.558Z,8.50
2023-02-28T22:38:40.954Z,8.02
2023-02-28T22:43:44.766Z,13.80
2023-02-28T22:48:48.590Z,10.07
2023-02-28T22:53:55.657Z,10.35
2023-02-28T22:59:00.214Z,7.22
2023-02-28T23:04:04.661Z,12.20
2023-02-28T23:09:11.578Z,7.18
2023-02-28T23:14:17.343Z,4.07
2023-02-28T23:19:23.639Z,5.70
2023-02-28T23:24:30.743Z,5.07
2023-02-28T23:29:35.048Z,6.72
2023-02-28T23:34:38.691Z,3.85
2023-02-28T23:39:43.947Z,3.03
2023-02-28T23:44:47.556Z,2.07
2023-02-28T23:49:51.180Z,1.98
2023-02-28T23:54:56.571Z,1.33
